createdAt,value
2023-05-04T00:02:43.787Z,64.20
2023-05-04T00:05:24.666Z,64.30
2023-05-04T00:08:03.734Z,64.30
2023-05-04T00:10:41.583Z,64.20
2023-05-04T00:13:12.255Z,64.20
2023-05-04T00:15:56.113Z,64.30
2023-05-04T00:18:28.100Z,64.40
2023-05-04T00:21:03.772Z,64.40
2023-05-04T00:23:36.187Z,64.40
2023-05-04T00:26:12.242Z,64.50
2023-05-04T00:28:45.593Z,64.50
2023-05-04T00:31:22.124Z,64.60
2023-05-04T00:34:07.877Z,64.70
2023-05-04T00:36:46.802Z,64.80
2023-05-04T00:39:27.822Z,64.80
2023-05-04T00:41:58.817Z,64.80
2023-05-04T00:44:37.862Z,64.70
2023-05-04T00:47:11.287Z,64.70
2023-05-04T00:49:59.103Z,64.70
2023-05-04T00:52:38.593Z,64.90
2023-05-04T00:55:18.471Z,64.80
2023-05-04T00:57:57.571Z,64.70
2023-05-04T01:00:37.319Z,64.70
2023-05-04T01:03:16.251Z,64.80
2023-05-04T01:05:56.475Z,65.00
2023-05-04T01:08:35.284Z,65.10
2023-05-04T01:11:19.533Z,65.20
2023-05-04T01:14:01.288Z,65.30
2023-05-04T01:16:38.993Z,65.30
2023-05-04T01:19:13.885Z,65.40
2023-05-04T01:21:52.263Z,65.50
2023-05-04T01:24:29.829Z,65.60
2023-05-04T01:27:13.505Z,65.50
2023-05-04T01:29:49.142Z,65.60
2023-05-04T01:32:30.115Z,65.70
2023-05-04T01:35:11.535Z,65.70
2023-05-04T01:38:00.514Z,65.70
2023-05-04T01:40:29.969Z,65.90
2023-05-04T01:43:01.320Z,65.90
2023-05-04T01:45:34.100Z,66.00
2023-05-04T01:48:05.584Z,66.00
2023-05-04T01:50:35.958Z,66.10
2023-05-04T01:53:13.327Z,66.10
2023-05-04T01:55:56.595Z,66.20
2023-05-04T01:58:29.405Z,66.20
2023-05-04T02:01:07.474Z,66.30
2023-05-04T02:03:45.065Z,66.30
2023-05-04T02:06:19.853Z,66.50
2023-05-04T02:08:58.510Z,66.50
2023-05-04T02:11:36.585Z,66.50
2023-05-04T02:14:08.000Z,66.20
2023-05-04T02:16:44.129Z,66.30
2023-05-04T02:19:14.874Z,66.20
2023-05-04T02:21:44.979Z,66.20
2023-05-04T02:24:42.352Z,66.30
2023-05-04T02:27:13.081Z,66.30
2023-05-04T02:29:54.909Z,66.40
2023-05-04T02:32:27.052Z,66.30
2023-05-04T02:35:02.522Z,66.40
2023-05-04T02:37:35.288Z,66.40
2023-05-04T02:40:20.722Z,66.40
2023-05-04T02:43:00.110Z,66.50
2023-05-04T02:45:33.405Z,66.50
2023-05-04T02:48:04.535Z,66.40
2023-05-04T02:50:41.629Z,66.30
2023-05-04T02:53:16.871Z,66.20
2023-05-04T02:55:53.224Z,66.20
2023-05-04T02:58:24.542Z,66.30
2023-05-04T03:01:01.104Z,66.40
2023-05-04T03:03:37.422Z,66.50
2023-05-04T03:06:18.481Z,66.50
2023-05-04T03:08:51.649Z,66.60
2023-05-04T03:11:40.169Z,66.60
2023-05-04T03:14:14.911Z,66.80
2023-05-04T03:16:51.939Z,66.70
2023-05-04T03:19:32.132Z,66.70
2023-05-04T03:22:11.096Z,66.80
2023-05-04T03:24:42.669Z,66.80
2023-05-04T03:27:22.354Z,66.80
2023-05-04T03:29:52.676Z,67.00
2023-05-04T03:32:29.357Z,67.00
2023-05-04T03:34:57.725Z,67.00
2023-05-04T03:37:29.332Z,67.00
2023-05-04T03:40:00.155Z,67.10
2023-05-04T03:42:40.489Z,67.10
2023-05-04T03:45:11.912Z,67.20
2023-05-04T03:47:43.042Z,67.20
2023-05-04T03:50:27.253Z,67.10
2023-05-04T03:52:57.889Z,67.00
2023-05-04T03:55:39.412Z,66.90
2023-05-04T03:58:11.361Z,66.90
2023-05-04T04:00:47.270Z,66.80
2023-05-04T04:03:19.842Z,66.80
2023-05-04T04:05:55.528Z,66.90
2023-05-04T04:08:32.641Z,66.90
2023-05-04T04:11:11.691Z,67.10
2023-05-04T04:13:48.546Z,67.00
2023-05-04T04:16:27.779Z,67.20
2023-05-04T04:19:07.385Z,67.20
2023-05-04T04:21:45.517Z,67.20
2023-05-04T04:24:24.736Z,67.20
2023-05-04T04:27:00.046Z,67.20
2023-05-04T04:29:38.672Z,67.30
2023-05-04T04:32:13.105Z,67.30
2023-05-04T04:34:47.808Z,67.50
2023-05-04T04:37:19.272Z,67.50
2023-05-04T04:39:52.562Z,67.70
2023-05-04T04:42:32.837Z,67.70
2023-05-04T04:45:13.721Z,67.80
2023-05-04T04:47:54.221Z,67.90
2023-05-04T04:50:35.376Z,68.10
2023-05-04T04:53:10.892Z,68.40
2023-05-04T04:55:48.758Z,68.50
2023-05-04T04:58:21.933Z,68.60
2023-05-04T05:01:07.184Z,68.70
2023-05-04T05:03:39.877Z,68.80
2023-05-04T05:06:14.997Z,68.90
2023-05-04T05:08:55.539Z,69.00
2023-05-04T05:11:28.732Z,69.00
2023-05-04T05:14:03.126Z,68.60
2023-05-04T05:16:43.854Z,68.40
2023-05-04T05:19:19.231Z,67.90
2023-05-04T05:21:56.596Z,67.40
2023-05-04T05:24:30.424Z,67.00
2023-05-04T05:27:02.376Z,66.70
2023-05-04T05:29:38.894Z,66.90
2023-05-04T05:32:19.230Z,66.70
2023-05-04T05:34:53.669Z,66.30
2023-05-04T05:37:31.173Z,66.60
2023-05-04T05:40:08.773Z,66.50
2023-05-04T05:42:39.402Z,66.30
2023-05-04T05:45:20.822Z,65.70
2023-05-04T05:47:59.352Z,65.50
2023-05-04T05:50:37.128Z,64.60
2023-05-04T05:53:14.759Z,64.20
2023-05-04T05:55:52.410Z,63.60
2023-05-04T05:58:27.495Z,62.90
2023-05-04T06:01:02.025Z,62.40
2023-05-04T06:03:43.450Z,61.40
2023-05-04T06:06:15.455Z,60.80
2023-05-04T06:08:48.899Z,60.80
2023-05-04T06:11:19.534Z,61.20
2023-05-04T06:13:50.949Z,61.80
2023-05-04T06:16:24.650Z,62.10
2023-05-04T06:19:00.576Z,62.60
2023-05-04T06:21:33.057Z,63.20
2023-05-04T06:24:12.546Z,63.60
2023-05-04T06:26:49.455Z,63.90
2023-05-04T06:29:23.261Z,64.30
2023-05-04T06:31:57.379Z,64.60
2023-05-04T06:34:27.536Z,64.80
2023-05-04T06:36:58.463Z,65.10
2023-05-04T06:39:32.340Z,65.40
2023-05-04T06:42:12.472Z,65.60
2023-05-04T06:44:47.934Z,65.80
2023-05-04T06:47:19.232Z,65.90
2023-05-04T06:50:02.083Z,66.10
2023-05-04T06:52:35.913Z,66.20
2023-05-04T06:55:14.756Z,66.30
2023-05-04T06:57:54.860Z,66.40
2023-05-04T07:00:35.548Z,66.50
2023-05-04T07:03:10.446Z,66.60
2023-05-04T07:05:47.893Z,66.60
2023-05-04T07:08:22.589Z,66.80
2023-05-04T07:10:56.528Z,66.80
2023-05-04T07:13:32.068Z,66.80
2023-05-04T07:16:06.730Z,66.90
2023-05-04T07:18:38.138Z,66.90
2023-05-04T07:21:27.769Z,67.00
2023-05-04T07:24:03.143Z,67.00
2023-05-04T07:26:36.324Z,67.00
2023-05-04T07:29:15.420Z,67.00
2023-05-04T07:31:52.515Z,67.00
2023-05-04T07:34:33.855Z,67.00
2023-05-04T07:37:24.574Z,67.10
2023-05-04T07:39:55.601Z,67.10
2023-05-04T07:42:30.326Z,67.10
2023-05-04T07:45:01.031Z,67.20
2023-05-04T07:47:43.049Z,67.10
2023-05-04T07:50:18.209Z,67.10
2023-05-04T07:53:07.928Z,66.80
2023-05-04T07:55:46.203Z,66.80
2023-05-04T07:58:20.179Z,66.80
2023-05-04T08:00:51.270Z,66.70
2023-05-04T08:03:31.135Z,66.80
2023-05-04T08:06:02.133Z,66.70
2023-05-04T08:08:43.162Z,66.80
2023-05-04T08:11:20.754Z,66.80
2023-05-04T08:13:56.565Z,66.70
2023-05-04T08:16:36.170Z,66.70
2023-05-04T08:19:15.252Z,66.50
2023-05-04T08:21:46.107Z,66.50
2023-05-04T08:24:31.645Z,66.50
2023-05-04T08:27:08.856Z,66.50
2023-05-04T08:29:42.196Z,66.50
2023-05-04T08:32:13.598Z,66.50
2023-05-04T08:34:44.430Z,66.50
2023-05-04T08:37:19.000Z,66.50
2023-05-04T08:39:58.722Z,66.30
2023-05-04T08:42:34.607Z,66.20
2023-05-04T08:45:05.906Z,66.20
2023-05-04T08:47:46.416Z,66.20
2023-05-04T08:50:24.726Z,66.10
2023-05-04T08:53:11.328Z,66.10
2023-05-04T08:55:53.768Z,66.10
2023-05-04T08:58:25.854Z,66.00
2023-05-04T09:01:00.162Z,66.10
2023-05-04T09:03:33.524Z,66.00
2023-05-04T09:06:04.236Z,65.90
2023-05-04T09:08:44.633Z,65.90
2023-05-04T09:11:16.726Z,65.80
2023-05-04T09:13:51.223Z,65.80
2023-05-04T09:16:29.225Z,65.70
2023-05-04T09:19:06.225Z,65.40
2023-05-04T09:21:44.338Z,65.30
2023-05-04T09:24:20.229Z,65.30
2023-05-04T09:26:55.854Z,65.30
2023-05-04T09:29:40.893Z,65.20
2023-05-04T09:32:18.215Z,64.90
2023-05-04T09:34:57.744Z,64.80
2023-05-04T09:37:28.378Z,64.70
2023-05-04T09:40:04.129Z,64.70
2023-05-04T09:42:48.976Z,64.60
2023-05-04T09:45:29.204Z,64.60
2023-05-04T09:47:59.292Z,64.50
2023-05-04T09:50:42.780Z,64.50
2023-05-04T09:53:20.256Z,64.40
2023-05-04T09:56:08.406Z,64.30
2023-05-04T09:58:51.378Z,64.20
2023-05-04T10:01:28.820Z,63.90
2023-05-04T10:04:02.616Z,63.90
2023-05-04T10:06:36.664Z,63.70
2023-05-04T10:09:10.547Z,63.60
2023-05-04T10:11:47.965Z,63.20
2023-05-04T10:14:28.268Z,63.20
2023-05-04T10:17:11.863Z,63.00
2023-05-04T10:20:23.488Z,62.70
2023-05-04T10:23:20.906Z,62.40
2023-05-04T10:26:43.741Z,62.00
2023-05-04T10:29:29.312Z,61.70
2023-05-04T10:31:59.741Z,61.70
2023-05-04T10:34:36.567Z,61.90
2023-05-04T10:37:26.870Z,61.80
2023-05-04T10:40:00.171Z,61.70
2023-05-04T10:42:41.511Z,61.40
2023-05-04T10:45:39.429Z,61.50
2023-05-04T10:48:13.581Z,61.30
2023-05-04T10:50:48.405Z,61.40
2023-05-04T10:53:36.754Z,61.10
2023-05-04T10:56:30.612Z,61.10
2023-05-04T10:59:16.987Z,61.00
2023-05-04T11:01:53.396Z,61.10
2023-05-04T11:04:25.102Z,60.90
2023-05-04T11:07:03.536Z,60.70
2023-05-04T11:09:48.285Z,60.60
2023-05-04T11:12:26.038Z,60.50
2023-05-04T11:15:20.036Z,60.30
2023-05-04T11:18:02.770Z,60.30
2023-05-04T11:20:33.524Z,60.10
2023-05-04T11:23:10.640Z,60.00
2023-05-04T11:25:43.638Z,59.90
2023-05-04T11:28:16.410Z,59.80
2023-05-04T11:30:50.710Z,59.80
2023-05-04T11:33:34.487Z,59.40
2023-05-04T11:36:13.063Z,59.30
2023-05-04T11:38:42.934Z,59.30
2023-05-04T11:41:12.510Z,59.30
2023-05-04T11:43:50.769Z,59.10
2023-05-04T11:46:24.883Z,59.00
2023-05-04T11:49:12.231Z,58.80
2023-05-04T11:51:40.830Z,58.70
2023-05-04T11:54:32.502Z,58.70
2023-05-04T11:57:07.166Z,58.30
2023-05-04T11:59:39.572Z,58.20
2023-05-04T12:02:20.607Z,58.30
2023-05-04T12:05:01.479Z,58.30
2023-05-04T12:07:46.021Z,58.10
2023-05-04T12:10:30.816Z,58.20
2023-05-04T12:13:11.369Z,57.90
2023-05-04T12:15:43.619Z,57.90
2023-05-04T12:18:30.325Z,57.70
2023-05-04T12:21:23.804Z,57.30
2023-05-04T12:23:59.698Z,57.30
2023-05-04T12:26:40.824Z,57.20
2023-05-04T12:29:15.204Z,57.10
2023-05-04T12:31:46.693Z,57.10
2023-05-04T12:34:20.930Z,56.90
2023-05-04T12:37:09.405Z,56.70
2023-05-04T12:39:54.075Z,56.50
2023-05-04T12:42:35.090Z,56.40
2023-05-04T12:45:08.487Z,56.30
2023-05-04T12:47:53.570Z,56.00
2023-05-04T12:50:28.637Z,55.90
2023-05-04T12:53:16.796Z,55.80
2023-05-04T12:55:55.100Z,55.90
2023-05-04T12:58:29.822Z,55.80
2023-05-04T13:01:11.009Z,55.50
2023-05-04T13:03:42.070Z,55.20
2023-05-04T13:06:18.057Z,55.10
2023-05-04T13:08:49.749Z,55.00
2023-05-04T13:11:24.441Z,54.40
2023-05-04T13:13:59.612Z,54.30
2023-05-04T13:16:38.885Z,54.00
2023-05-04T13:19:15.369Z,53.80
2023-05-04T13:21:55.868Z,53.90
2023-05-04T13:24:35.477Z,53.90
2023-05-04T13:27:16.314Z,53.70
2023-05-04T13:29:48.718Z,53.80
2023-05-04T13:32:29.349Z,53.70
2023-05-04T13:35:03.595Z,53.60
2023-05-04T13:37:37.820Z,53.50
2023-05-04T13:40:17.317Z,53.30
2023-05-04T13:42:51.506Z,53.20
2023-05-04T13:45:23.780Z,53.10
2023-05-04T13:47:58.604Z,53.00
2023-05-04T13:50:29.362Z,53.00
2023-05-04T13:53:11.842Z,52.90
2023-05-04T13:55:50.421Z,52.70
2023-05-04T13:58:24.171Z,52.60
2023-05-04T14:00:59.317Z,52.60
2023-05-04T14:03:37.086Z,52.20
2023-05-04T14:06:16.508Z,52.00
2023-05-04T14:08:51.129Z,51.70
2023-05-04T14:11:39.121Z,51.60
2023-05-04T14:14:14.814Z,51.60
2023-05-04T14:16:48.330Z,51.50
2023-05-04T14:19:29.033Z,51.50
2023-05-04T14:21:59.465Z,51.50
2023-05-04T14:24:39.414Z,50.90
2023-05-04T14:27:12.579Z,50.80
2023-05-04T14:29:47.884Z,50.80
2023-05-04T14:32:29.329Z,50.70
2023-05-04T14:35:11.855Z,50.80
2023-05-04T14:37:44.555Z,50.60
2023-05-04T14:40:25.066Z,50.40
2023-05-04T14:42:57.577Z,50.40
2023-05-04T14:45:30.973Z,50.10
2023-05-04T14:48:04.882Z,50.00
2023-05-04T14:50:35.191Z,50.00
2023-05-04T14:53:14.333Z,50.00
2023-05-04T14:55:48.597Z,50.10
2023-05-04T14:58:41.397Z,49.90
2023-05-04T15:01:12.864Z,49.70
2023-05-04T15:03:53.846Z,49.60
2023-05-04T15:06:38.557Z,49.30
2023-05-04T15:09:09.940Z,49.10
2023-05-04T15:11:51.791Z,49.10
2023-05-04T15:14:26.231Z,48.90
2023-05-04T15:17:06.756Z,48.90
2023-05-04T15:19:42.248Z,49.00
2023-05-04T15:22:19.014Z,49.20
2023-05-04T15:24:54.791Z,49.10
2023-05-04T15:27:26.665Z,49.10
2023-05-04T15:29:58.935Z,49.00
2023-05-04T15:32:34.066Z,48.70
2023-05-04T15:35:07.479Z,48.70
2023-05-04T15:37:37.546Z,48.50
2023-05-04T15:40:15.539Z,48.40
2023-05-04T15:42:48.547Z,48.00
2023-05-04T15:45:29.232Z,48.10
2023-05-04T15:48:02.860Z,48.00
2023-05-04T15:50:37.647Z,47.70
2023-05-04T15:53:08.657Z,47.70
2023-05-04T15:55:42.004Z,47.60
2023-05-04T15:58:13.363Z,47.80
2023-05-04T16:00:54.136Z,47.80
2023-05-04T16:03:29.547Z,47.80
2023-05-04T16:06:00.654Z,47.90
2023-05-04T16:08:32.265Z,47.90
2023-05-04T16:11:02.860Z,47.90
2023-05-04T16:13:44.306Z,47.80
2023-05-04T16:16:28.028Z,47.70
2023-05-04T16:19:10.130Z,47.80
2023-05-04T16:21:40.993Z,47.90
2023-05-04T16:24:16.817Z,47.80
2023-05-04T16:26:56.987Z,47.90
2023-05-04T16:29:31.829Z,48.10
2023-05-04T16:32:10.604Z,48.20
2023-05-04T16:34:41.185Z,48.00
2023-05-04T16:37:19.765Z,47.90
2023-05-04T16:39:55.531Z,47.80
2023-05-04T16:42:34.153Z,48.00
2023-05-04T16:45:08.706Z,48.00
2023-05-04T16:47:45.398Z,48.10
2023-05-04T16:50:25.862Z,48.00
2023-05-04T16:52:59.336Z,48.00
2023-05-04T16:55:38.212Z,47.90
2023-05-04T16:58:14.783Z,47.60
2023-05-04T17:00:48.257Z,47.40
2023-05-04T17:03:24.229Z,47.60
2023-05-04T17:05:59.281Z,47.30
2023-05-04T17:08:38.154Z,47.20
2023-05-04T17:11:07.905Z,47.30
2023-05-04T17:13:49.060Z,47.20
2023-05-04T17:16:21.191Z,47.10
2023-05-04T17:19:00.470Z,47.10
2023-05-04T17:21:35.348Z,47.10
2023-05-04T17:24:09.212Z,47.20
2023-05-04T17:26:49.125Z,47.40
2023-05-04T17:29:19.762Z,47.50
2023-05-04T17:31:53.834Z,47.60
2023-05-04T17:34:26.638Z,47.70
2023-05-04T17:36:58.420Z,47.90
2023-05-04T17:39:36.332Z,48.00
2023-05-04T17:42:16.228Z,48.10
2023-05-04T17:44:47.917Z,48.10
2023-05-04T17:47:21.539Z,48.00
2023-05-04T17:49:59.140Z,48.10
2023-05-04T17:52:40.076Z,48.10
2023-05-04T17:55:19.450Z,48.30
2023-05-04T17:57:50.850Z,48.40
2023-05-04T18:00:21.381Z,48.50
2023-05-04T18:03:02.482Z,48.80
2023-05-04T18:05:37.107Z,48.90
2023-05-04T18:08:11.792Z,49.20
2023-05-04T18:10:54.894Z,49.40
2023-05-04T18:13:36.688Z,49.60
2023-05-04T18:16:08.443Z,49.70
2023-05-04T18:18:43.453Z,49.70
2023-05-04T18:21:17.059Z,49.80
2023-05-04T18:23:46.903Z,50.00
2023-05-04T18:26:22.526Z,50.10
2023-05-04T18:29:04.277Z,50.20
2023-05-04T18:31:44.719Z,50.50
2023-05-04T18:34:24.581Z,51.30
2023-05-04T18:37:02.688Z,51.80
2023-05-04T18:39:42.352Z,52.40
2023-05-04T18:42:19.685Z,52.70
2023-05-04T18:44:49.911Z,53.20
2023-05-04T18:47:23.384Z,53.70
2023-05-04T18:49:54.796Z,54.00
2023-05-04T18:52:32.353Z,54.30
2023-05-04T18:55:09.273Z,54.70
2023-05-04T18:57:47.705Z,54.80
2023-05-04T19:00:29.993Z,55.00
2023-05-04T19:03:02.302Z,55.40
2023-05-04T19:05:37.045Z,55.60
2023-05-04T19:08:19.618Z,55.80
2023-05-04T19:11:02.713Z,56.10
2023-05-04T19:13:35.516Z,56.30
2023-05-04T19:16:07.159Z,56.40
2023-05-04T19:18:40.427Z,56.60
2023-05-04T19:21:20.991Z,57.00
2023-05-04T19:23:52.998Z,57.20
2023-05-04T19:26:32.508Z,57.40
2023-05-04T19:29:09.155Z,57.50
2023-05-04T19:31:46.278Z,57.60
2023-05-04T19:34:20.484Z,57.90
2023-05-04T19:37:01.520Z,57.90
2023-05-04T19:39:40.292Z,58.10
2023-05-04T19:42:17.731Z,58.20
2023-05-04T19:44:46.399Z,58.40
2023-05-04T19:47:22.450Z,58.50
2023-05-04T19:49:54.105Z,58.70
2023-05-04T19:52:30.452Z,58.90
2023-05-04T19:55:23.575Z,58.90
2023-05-04T19:57:56.279Z,59.10
2023-05-04T20:00:27.666Z,59.10
2023-05-04T20:03:10.008Z,59.30
2023-05-04T20:05:42.082Z,59.40
2023-05-04T20:08:15.143Z,59.50
2023-05-04T20:10:54.776Z,59.70
2023-05-04T20:13:29.122Z,59.80
2023-05-04T20:16:04.438Z,59.80
2023-05-04T20:18:38.284Z,60.10
2023-05-04T20:21:15.481Z,60.20
2023-05-04T20:23:56.385Z,60.40
2023-05-04T20:26:30.479Z,60.50
2023-05-04T20:29:03.226Z,60.60
2023-05-04T20:31:35.024Z,60.60
2023-05-04T20:34:16.392Z,60.80
2023-05-04T20:36:48.955Z,60.80
2023-05-04T20:39:26.935Z,60.90
2023-05-04T20:42:05.757Z,61.00
2023-05-04T20:44:40.709Z,61.20
2023-05-04T20:47:15.371Z,61.30
2023-05-04T20:49:46.758Z,61.30
2023-05-04T20:52:16.444Z,61.40
2023-05-04T20:54:53.962Z,61.50
2023-05-04T20:57:28.935Z,61.60
2023-05-04T21:00:08.879Z,61.80
2023-05-04T21:02:44.974Z,61.90
2023-05-04T21:05:19.905Z,61.90
2023-05-04T21:07:54.226Z,62.00
2023-05-04T21:10:28.830Z,62.10
2023-05-04T21:13:09.699Z,62.20
2023-05-04T21:15:44.281Z,62.30
2023-05-04T21:18:15.091Z,62.30
2023-05-04T21:20:53.866Z,62.30
2023-05-04T21:23:25.566Z,62.40
2023-05-04T21:26:09.894Z,62.50
2023-05-04T21:28:41.993Z,62.50
2023-05-04T21:31:20.343Z,62.60
2023-05-04T21:33:50.786Z,62.60
2023-05-04T21:36:23.329Z,62.70
2023-05-04T21:38:57.573Z,62.80
2023-05-04T21:41:32.258Z,62.80
2023-05-04T21:44:15.794Z,62.90
2023-05-04T21:46:53.668Z,63.00
2023-05-04T21:49:25.715Z,63.00
2023-05-04T21:52:09.754Z,63.10
2023-05-04T21:54:48.697Z,63.10
2023-05-04T21:57:19.941Z,63.20
2023-05-04T22:00:12.433Z,63.30
2023-05-04T22:02:45.757Z,63.40
2023-05-04T22:05:27.412Z,63.50
2023-05-04T22:08:02.411Z,63.50
2023-05-04T22:10:39.524Z,63.50
2023-05-04T22:13:24.487Z,63.70
2023-05-04T22:15:56.079Z,63.70
2023-05-04T22:18:24.721Z,63.80
2023-05-04T22:20:58.764Z,63.80
2023-05-04T22:23:31.834Z,63.80
2023-05-04T22:26:05.889Z,63.80
2023-05-04T22:28:46.149Z,63.90
2023-05-04T22:31:23.316Z,64.00
2023-05-04T22:33:53.863Z,64.10
2023-05-04T22:36:31.913Z,64.10
2023-05-04T22:39:04.681Z,64.20
2023-05-04T22:41:38.105Z,64.30
2023-05-04T22:44:11.838Z,64.30
2023-05-04T22:46:49.770Z,64.40
2023-05-04T22:49:29.262Z,64.50
2023-05-04T22:52:04.259Z,64.50
2023-05-04T22:54:41.407Z,64.60
2023-05-04T22:57:14.482Z,64.70
2023-05-04T22:59:48.236Z,64.70
2023-05-04T23:02:34.886Z,64.70
2023-05-04T23:05:07.117Z,64.80
2023-05-04T23:07:52.471Z,64.80
2023-05-04T23:10:24.726Z,64.90
2023-05-04T23:12:55.713Z,64.90
2023-05-04T23:15:28.859Z,65.10
2023-05-04T23:18:06.288Z,65.10
2023-05-04T23:20:39.361Z,65.10
2023-05-04T23:23:14.355Z,65.10
2023-05-04T23:25:44.796Z,65.10
2023-05-04T23:28:27.296Z,65.10
2023-05-04T23:31:03.505Z,65.20
2023-05-04T23:33:42.249Z,65.30
2023-05-04T23:36:11.257Z,65.50
2023-05-04T23:38:51.602Z,65.50
2023-05-04T23:41:26.996Z,65.50
2023-05-04T23:44:04.429Z,65.60
2023-05-04T23:46:36.915Z,65.70
2023-05-04T23:49:19.698Z,65.80
2023-05-04T23:51:50.505Z,65.90
2023-05-04T23:54:23.673Z,65.90
2023-05-04T23:56:54.187Z,65.90
2023-05-04T23:59:33.596Z,65.80
